sensor_id;sensor_type;location;lat;lon;timestamp;P1;durP1;ratioP1;P2;durP2;ratioP2
24555;SDS011;12725;49.440;10.954;2023-07-28T00:03:59;1.80;;;1.63;;
24555;SDS011;12725;49.440;10.954;2023-07-28T00:08:00;1.50;;;1.13;;
24555;SDS011;12725;49.440;10.954;2023-07-28T00:12:00;2.03;;;1.43;;
24555;SDS011;12725;49.440;10.954;2023-07-28T00:16:01;3.97;;;1.52;;
24555;SDS011;12725;49.440;10.954;2023-07-28T00:20:01;2.50;;;1.57;;
24555;SDS011;12725;49.440;10.954;2023-07-28T00:24:02;1.65;;;1.48;;
24555;SDS011;12725;49.440;10.954;2023-07-28T00:28:02;1.58;;;1.38;;
24555;SDS011;12725;49.440;10.954;2023-07-28T00:32:03;3.00;;;1.80;;
24555;SDS011;12725;49.440;10.954;2023-07-28T00:36:03;2.00;;;1.63;;
24555;SDS011;12725;49.440;10.954;2023-07-28T00:40:04;3.38;;;1.70;;
24555;SDS011;12725;49.440;10.954;2023-07-28T00:44:05;3.28;;;1.98;;
24555;SDS011;12725;49.440;10.954;2023-07-28T00:48:06;3.40;;;1.83;;
24555;SDS011;12725;49.440;10.954;2023-07-28T00:52:11;3.80;;;2.20;;
24555;SDS011;12725;49.440;10.954;2023-07-28T00:56:11;2.27;;;1.63;;
24555;SDS011;12725;49.440;10.954;2023-07-28T01:00:12;3.22;;;1.55;;
24555;SDS011;12725;49.440;10.954;2023-07-28T01:04:12;2.72;;;1.42;;
24555;SDS011;12725;49.440;10.954;2023-07-28T01:08:37;1.85;;;1.23;;
24555;SDS011;12725;49.440;10.954;2023-07-28T01:12:47;1.42;;;1.27;;
24555;SDS011;12725;49.440;10.954;2023-07-28T01:16:48;1.53;;;1.20;;
24555;SDS011;12725;49.440;10.954;2023-07-28T01:20:48;1.90;;;1.30;;
24555;SDS011;12725;49.440;10.954;2023-07-28T01:29:47;2.70;;;1.77;;
24555;SDS011;12725;49.440;10.954;2023-07-28T01:33:48;4.03;;;1.48;;
24555;SDS011;12725;49.440;10.954;2023-07-28T01:37:48;2.07;;;1.50;;
24555;SDS011;12725;49.440;10.954;2023-07-28T01:41:50;2.20;;;1.60;;
24555;SDS011;12725;49.440;10.954;2023-07-28T01:45:51;4.77;;;1.67;;
24555;SDS011;12725;49.440;10.954;2023-07-28T01:49:51;4.18;;;1.13;;
24555;SDS011;12725;49.440;10.954;2023-07-28T01:53:51;3.25;;;1.85;;
24555;SDS011;12725;49.440;10.954;2023-07-28T01:57:56;3.43;;;1.40;;
24555;SDS011;12725;49.440;10.954;2023-07-28T02:01:57;2.95;;;1.40;;
24555;SDS011;12725;49.440;10.954;2023-07-28T02:05:58;3.15;;;2.03;;
24555;SDS011;12725;49.440;10.954;2023-07-28T02:09:58;1.27;;;1.10;;
24555;SDS011;12725;49.440;10.954;2023-07-28T02:13:59;1.70;;;1.43;;
24555;SDS011;12725;49.440;10.954;2023-07-28T02:17:59;3.97;;;2.15;;
24555;SDS011;12725;49.440;10.954;2023-07-28T02:21:59;2.67;;;1.77;;
24555;SDS011;12725;49.440;10.954;2023-07-28T02:26:00;2.83;;;2.07;;
24555;SDS011;12725;49.440;10.954;2023-07-28T02:30:00;1.90;;;1.80;;
24555;SDS011;12725;49.440;10.954;2023-07-28T02:34:00;3.58;;;2.03;;
24555;SDS011;12725;49.440;10.954;2023-07-28T02:38:01;1.37;;;1.27;;
24555;SDS011;12725;49.440;10.954;2023-07-28T02:42:01;2.78;;;1.92;;
24555;SDS011;12725;49.440;10.954;2023-07-28T02:46:02;3.72;;;2.08;;
24555;SDS011;12725;49.440;10.954;2023-07-28T02:50:03;5.45;;;1.30;;
24555;SDS011;12725;49.440;10.954;2023-07-28T02:54:03;2.90;;;1.73;;
24555;SDS011;12725;49.440;10.954;2023-07-28T02:58:04;3.53;;;2.10;;
24555;SDS011;12725;49.440;10.954;2023-07-28T03:02:04;2.33;;;1.98;;
24555;SDS011;12725;49.440;10.954;2023-07-28T03:06:05;2.65;;;1.52;;
24555;SDS011;12725;49.440;10.954;2023-07-28T03:10:05;2.10;;;1.60;;
24555;SDS011;12725;49.440;10.954;2023-07-28T03:14:06;4.30;;;2.15;;
24555;SDS011;12725;49.440;10.954;2023-07-28T03:18:06;3.58;;;1.65;;
24555;SDS011;12725;49.440;10.954;2023-07-28T03:22:07;2.20;;;1.52;;
24555;SDS011;12725;49.440;10.954;2023-07-28T03:26:07;9.77;;;2.40;;
24555;SDS011;12725;49.440;10.954;2023-07-28T03:30:07;2.03;;;1.83;;
24555;SDS011;12725;49.440;10.954;2023-07-28T03:34:10;16.10;;;1.70;;
24555;SDS011;12725;49.440;10.954;2023-07-28T03:38:10;2.60;;;1.70;;
24555;SDS011;12725;49.440;10.954;2023-07-28T03:42:11;2.17;;;1.40;;
24555;SDS011;12725;49.440;10.954;2023-07-28T03:46:11;3.57;;;2.30;;
24555;SDS011;12725;49.440;10.954;2023-07-28T03:50:11;4.32;;;2.33;;
24555;SDS011;12725;49.440;10.954;2023-07-28T03:54:12;2.05;;;1.50;;
24555;SDS011;12725;49.440;10.954;2023-07-28T03:58:12;3.05;;;1.95;;
24555;SDS011;12725;49.440;10.954;2023-07-28T04:02:13;3.53;;;2.03;;
24555;SDS011;12725;49.440;10.954;2023-07-28T04:06:13;2.27;;;2.07;;
24555;SDS011;12725;49.440;10.954;2023-07-28T04:10:13;3.33;;;1.80;;
24555;SDS011;12725;49.440;10.954;2023-07-28T04:14:14;2.30;;;1.73;;
24555;SDS011;12725;49.440;10.954;2023-07-28T04:18:14;3.90;;;2.22;;
24555;SDS011;12725;49.440;10.954;2023-07-28T04:22:14;3.63;;;2.40;;
24555;SDS011;12725;49.440;10.954;2023-07-28T04:26:21;2.78;;;2.28;;
24555;SDS011;12725;49.440;10.954;2023-07-28T04:30:23;2.47;;;1.83;;
24555;SDS011;12725;49.440;10.954;2023-07-28T04:34:23;4.25;;;2.17;;
24555;SDS011;12725;49.440;10.954;2023-07-28T04:38:23;2.47;;;1.90;;
24555;SDS011;12725;49.440;10.954;2023-07-28T04:42:24;3.07;;;2.10;;
24555;SDS011;12725;49.440;10.954;2023-07-28T04:46:24;4.37;;;2.17;;
24555;SDS011;12725;49.440;10.954;2023-07-28T04:50:24;2.07;;;1.90;;
24555;SDS011;12725;49.440;10.954;2023-07-28T04:54:25;2.73;;;1.87;;
24555;SDS011;12725;49.440;10.954;2023-07-28T04:58:25;2.53;;;1.87;;
24555;SDS011;12725;49.440;10.954;2023-07-28T05:02:26;3.20;;;1.98;;
24555;SDS011;12725;49.440;10.954;2023-07-28T05:06:26;3.90;;;1.33;;
24555;SDS011;12725;49.440;10.954;2023-07-28T05:10:26;3.78;;;2.47;;
24555;SDS011;12725;49.440;10.954;2023-07-28T05:14:27;3.63;;;1.97;;
24555;SDS011;12725;49.440;10.954;2023-07-28T05:18:27;3.80;;;1.80;;
24555;SDS011;12725;49.440;10.954;2023-07-28T05:22:28;4.25;;;2.55;;
24555;SDS011;12725;49.440;10.954;2023-07-28T05:26:29;3.38;;;1.92;;
24555;SDS011;12725;49.440;10.954;2023-07-28T05:30:29;2.57;;;2.03;;
24555;SDS011;12725;49.440;10.954;2023-07-28T05:34:30;3.70;;;2.10;;
24555;SDS011;12725;49.440;10.954;2023-07-28T05:38:30;3.38;;;2.03;;
24555;SDS011;12725;49.440;10.954;2023-07-28T05:42:31;5.83;;;2.17;;
24555;SDS011;12725;49.440;10.954;2023-07-28T05:46:31;2.88;;;2.03;;
24555;SDS011;12725;49.440;10.954;2023-07-28T05:50:32;2.70;;;1.98;;
24555;SDS011;12725;49.440;10.954;2023-07-28T05:54:32;2.73;;;1.87;;
24555;SDS011;12725;49.440;10.954;2023-07-28T05:58:33;2.65;;;2.05;;
24555;SDS011;12725;49.440;10.954;2023-07-28T06:02:33;6.95;;;2.70;;
24555;SDS011;12725;49.440;10.954;2023-07-28T06:06:33;7.30;;;2.77;;
24555;SDS011;12725;49.440;10.954;2023-07-28T06:10:34;3.93;;;2.50;;
24555;SDS011;12725;49.440;10.954;2023-07-28T06:14:35;2.13;;;1.65;;
24555;SDS011;12725;49.440;10.954;2023-07-28T06:18:35;2.47;;;2.08;;
24555;SDS011;12725;49.440;10.954;2023-07-28T06:22:36;3.75;;;2.47;;
24555;SDS011;12725;49.440;10.954;2023-07-28T06:26:36;2.50;;;1.83;;
24555;SDS011;12725;49.440;10.954;2023-07-28T06:30:37;3.60;;;2.13;;
24555;SDS011;12725;49.440;10.954;2023-07-28T06:34:37;3.67;;;2.40;;
24555;SDS011;12725;49.440;10.954;2023-07-28T06:38:38;3.33;;;1.77;;
24555;SDS011;12725;49.440;10.954;2023-07-28T06:42:39;2.90;;;1.90;;
24555;SDS011;12725;49.440;10.954;2023-07-28T06:46:39;4.17;;;2.00;;
24555;SDS011;12725;49.440;10.954;2023-07-28T06:50:39;4.20;;;2.70;;
24555;SDS011;12725;49.440;10.954;2023-07-28T06:54:40;2.25;;;1.77;;
24555;SDS011;12725;49.440;10.954;2023-07-28T06:58:40;4.57;;;2.42;;
24555;SDS011;12725;49.440;10.954;2023-07-28T07:02:41;3.20;;;2.30;;
24555;SDS011;12725;49.440;10.954;2023-07-28T07:06:41;3.45;;;2.33;;
24555;SDS011;12725;49.440;10.954;2023-07-28T07:10:51;4.22;;;2.30;;
24555;SDS011;12725;49.440;10.954;2023-07-28T07:14:52;2.90;;;1.73;;
24555;SDS011;12725;49.440;10.954;2023-07-28T07:18:52;2.33;;;1.90;;
24555;SDS011;12725;49.440;10.954;2023-07-28T07:22:53;3.13;;;2.03;;
24555;SDS011;12725;49.440;10.954;2023-07-28T07:26:53;2.87;;;2.07;;
24555;SDS011;12725;49.440;10.954;2023-07-28T07:30:57;5.10;;;2.50;;
24555;SDS011;12725;49.440;10.954;2023-07-28T07:34:57;4.95;;;3.08;;
24555;SDS011;12725;49.440;10.954;2023-07-28T07:38:57;3.93;;;2.57;;
24555;SDS011;12725;49.440;10.954;2023-07-28T07:42:58;4.03;;;2.63;;
24555;SDS011;12725;49.440;10.954;2023-07-28T07:47:01;3.50;;;2.60;;
24555;SDS011;12725;49.440;10.954;2023-07-28T07:51:12;3.35;;;2.25;;
24555;SDS011;12725;49.440;10.954;2023-07-28T07:55:12;9.02;;;2.00;;
24555;SDS011;12725;49.440;10.954;2023-07-28T07:59:13;3.90;;;2.30;;
24555;SDS011;12725;49.440;10.954;2023-07-28T08:03:13;1.80;;;1.70;;
24555;SDS011;12725;49.440;10.954;2023-07-28T08:07:14;4.83;;;2.70;;
24555;SDS011;12725;49.440;10.954;2023-07-28T08:11:16;4.70;;;2.38;;
24555;SDS011;12725;49.440;10.954;2023-07-28T08:15:16;2.30;;;2.10;;
24555;SDS011;12725;49.440;10.954;2023-07-28T08:19:17;3.95;;;2.15;;
24555;SDS011;12725;49.440;10.954;2023-07-28T08:23:17;3.80;;;1.90;;
24555;SDS011;12725;49.440;10.954;2023-07-28T08:27:17;2.70;;;1.53;;
24555;SDS011;12725;49.440;10.954;2023-07-28T08:31:18;3.28;;;1.73;;
24555;SDS011;12725;49.440;10.954;2023-07-28T08:35:18;3.13;;;1.70;;
24555;SDS011;12725;49.440;10.954;2023-07-28T08:39:18;1.92;;;1.60;;
24555;SDS011;12725;49.440;10.954;2023-07-28T08:43:20;1.70;;;1.23;;
24555;SDS011;12725;49.440;10.954;2023-07-28T08:47:20;2.97;;;1.60;;
24555;SDS011;12725;49.440;10.954;2023-07-28T08:51:24;2.40;;;1.20;;
24555;SDS011;12725;49.440;10.954;2023-07-28T08:55:24;1.70;;;1.27;;
24555;SDS011;12725;49.440;10.954;2023-07-28T08:59:25;1.92;;;1.27;;
24555;SDS011;12725;49.440;10.954;2023-07-28T09:03:27;2.10;;;1.23;;
24555;SDS011;12725;49.440;10.954;2023-07-28T09:07:33;2.15;;;1.48;;
24555;SDS011;12725;49.440;10.954;2023-07-28T09:11:46;1.27;;;1.10;;
24555;SDS011;12725;49.440;10.954;2023-07-28T09:15:51;1.75;;;1.25;;
24555;SDS011;12725;49.440;10.954;2023-07-28T09:19:52;1.48;;;1.00;;
24555;SDS011;12725;49.440;10.954;2023-07-28T09:23:55;2.05;;;1.42;;
24555;SDS011;12725;49.440;10.954;2023-07-28T09:27:56;6.00;;;1.43;;
24555;SDS011;12725;49.440;10.954;2023-07-28T09:32:04;2.05;;;0.88;;
24555;SDS011;12725;49.440;10.954;2023-07-28T09:36:09;0.90;;;0.77;;
24555;SDS011;12725;49.440;10.954;2023-07-28T09:40:11;1.02;;;0.90;;
24555;SDS011;12725;49.440;10.954;2023-07-28T09:44:13;1.10;;;1.00;;
24555;SDS011;12725;49.440;10.954;2023-07-28T09:48:13;1.05;;;0.75;;
24555;SDS011;12725;49.440;10.954;2023-07-28T09:52:15;1.08;;;0.80;;
24555;SDS011;12725;49.440;10.954;2023-07-28T09:56:17;0.63;;;0.63;;
24555;SDS011;12725;49.440;10.954;2023-07-28T10:00:18;0.65;;;0.65;;
24555;SDS011;12725;49.440;10.954;2023-07-28T10:04:21;0.70;;;0.70;;
24555;SDS011;12725;49.440;10.954;2023-07-28T10:08:21;0.88;;;0.80;;
24555;SDS011;12725;49.440;10.954;2023-07-28T10:12:25;0.60;;;0.60;;
24555;SDS011;12725;49.440;10.954;2023-07-28T10:16:29;0.98;;;0.65;;
24555;SDS011;12725;49.440;10.954;2023-07-28T10:20:38;0.45;;;0.45;;
24555;SDS011;12725;49.440;10.954;2023-07-28T10:24:56;0.55;;;0.43;;
24555;SDS011;12725;49.440;10.954;2023-07-28T10:29:07;0.55;;;0.55;;
24555;SDS011;12725;49.440;10.954;2023-07-28T10:33:08;0.60;;;0.60;;
24555;SDS011;12725;49.440;10.954;2023-07-28T10:37:26;0.80;;;0.80;;
24555;SDS011;12725;49.440;10.954;2023-07-28T10:41:26;0.70;;;0.70;;
24555;SDS011;12725;49.440;10.954;2023-07-28T10:45:28;3.87;;;0.87;;
24555;SDS011;12725;49.440;10.954;2023-07-28T10:49:29;1.13;;;0.65;;
24555;SDS011;12725;49.440;10.954;2023-07-28T10:53:31;0.67;;;0.67;;
24555;SDS011;12725;49.440;10.954;2023-07-28T10:57:31;1.25;;;0.80;;
24555;SDS011;12725;49.440;10.954;2023-07-28T11:01:35;1.23;;;0.70;;
24555;SDS011;12725;49.440;10.954;2023-07-28T11:05:38;0.98;;;0.82;;
24555;SDS011;12725;49.440;10.954;2023-07-28T11:09:40;0.50;;;0.50;;
24555;SDS011;12725;49.440;10.954;2023-07-28T11:13:40;0.50;;;0.50;;
24555;SDS011;12725;49.440;10.954;2023-07-28T11:17:43;0.52;;;0.52;;
24555;SDS011;12725;49.440;10.954;2023-07-28T11:21:45;1.23;;;0.73;;
24555;SDS011;12725;49.440;10.954;2023-07-28T11:25:51;0.93;;;0.63;;
24555;SDS011;12725;49.440;10.954;2023-07-28T11:29:51;1.27;;;0.70;;
24555;SDS011;12725;49.440;10.954;2023-07-28T11:33:53;0.65;;;0.63;;
24555;SDS011;12725;49.440;10.954;2023-07-28T11:37:53;1.48;;;0.90;;
24555;SDS011;12725;49.440;10.954;2023-07-28T11:41:55;0.75;;;0.50;;
24555;SDS011;12725;49.440;10.954;2023-07-28T11:45:55;1.00;;;0.60;;
24555;SDS011;12725;49.440;10.954;2023-07-28T11:49:55;0.50;;;0.50;;
24555;SDS011;12725;49.440;10.954;2023-07-28T11:53:58;0.60;;;0.60;;
24555;SDS011;12725;49.440;10.954;2023-07-28T11:57:58;0.50;;;0.50;;
24555;SDS011;12725;49.440;10.954;2023-07-28T12:02:03;0.40;;;0.40;;
24555;SDS011;12725;49.440;10.954;2023-07-28T12:06:07;0.57;;;0.57;;
24555;SDS011;12725;49.440;10.954;2023-07-28T12:10:10;0.60;;;0.60;;
24555;SDS011;12725;49.440;10.954;2023-07-28T12:14:10;0.75;;;0.50;;
24555;SDS011;12725;49.440;10.954;2023-07-28T12:18:12;0.60;;;0.60;;
24555;SDS011;12725;49.440;10.954;2023-07-28T12:22:13;3.75;;;1.40;;
24555;SDS011;12725;49.440;10.954;2023-07-28T12:26:13;0.60;;;0.53;;
24555;SDS011;12725;49.440;10.954;2023-07-28T12:30:14;0.87;;;0.60;;
24555;SDS011;12725;49.440;10.954;2023-07-28T12:34:14;0.60;;;0.60;;
24555;SDS011;12725;49.440;10.954;2023-07-28T12:38:14;0.90;;;0.77;;
24555;SDS011;12725;49.440;10.954;2023-07-28T12:42:15;0.50;;;0.50;;
24555;SDS011;12725;49.440;10.954;2023-07-28T12:46:15;1.45;;;1.17;;
24555;SDS011;12725;49.440;10.954;2023-07-28T12:50:16;1.40;;;0.90;;
24555;SDS011;12725;49.440;10.954;2023-07-28T12:54:16;0.63;;;0.50;;
24555;SDS011;12725;49.440;10.954;2023-07-28T12:58:17;1.20;;;0.63;;
24555;SDS011;12725;49.440;10.954;2023-07-28T13:02:17;1.00;;;0.70;;
24555;SDS011;12725;49.440;10.954;2023-07-28T13:06:18;0.70;;;0.70;;
24555;SDS011;12725;49.440;10.954;2023-07-28T13:10:19;1.08;;;0.95;;
24555;SDS011;12725;49.440;10.954;2023-07-28T13:14:19;0.73;;;0.50;;
24555;SDS011;12725;49.440;10.954;2023-07-28T13:18:20;0.85;;;0.60;;
24555;SDS011;12725;49.440;10.954;2023-07-28T13:22:20;1.08;;;0.75;;
24555;SDS011;12725;49.440;10.954;2023-07-28T13:26:20;0.40;;;0.40;;
24555;SDS011;12725;49.440;10.954;2023-07-28T13:30:21;0.63;;;0.60;;
24555;SDS011;12725;49.440;10.954;2023-07-28T13:34:21;0.98;;;0.73;;
24555;SDS011;12725;49.440;10.954;2023-07-28T13:38:22;0.60;;;0.60;;
24555;SDS011;12725;49.440;10.954;2023-07-28T13:42:22;0.50;;;0.40;;
24555;SDS011;12725;49.440;10.954;2023-07-28T13:46:22;0.63;;;0.60;;
24555;SDS011;12725;49.440;10.954;2023-07-28T13:50:23;0.60;;;0.60;;
24555;SDS011;12725;49.440;10.954;2023-07-28T13:54:23;1.40;;;0.80;;
24555;SDS011;12725;49.440;10.954;2023-07-28T13:58:24;0.83;;;0.70;;
24555;SDS011;12725;49.440;10.954;2023-07-28T14:02:24;0.70;;;0.70;;
24555;SDS011;12725;49.440;10.954;2023-07-28T14:06:25;0.40;;;0.40;;
24555;SDS011;12725;49.440;10.954;2023-07-28T14:10:25;0.47;;;0.47;;
24555;SDS011;12725;49.440;10.954;2023-07-28T14:14:26;0.73;;;0.60;;
24555;SDS011;12725;49.440;10.954;2023-07-28T14:18:26;0.63;;;0.57;;
24555;SDS011;12725;49.440;10.954;2023-07-28T14:22:26;1.00;;;0.73;;
24555;SDS011;12725;49.440;10.954;2023-07-28T14:26:27;0.53;;;0.53;;
24555;SDS011;12725;49.440;10.954;2023-07-28T14:30:27;0.80;;;0.80;;
24555;SDS011;12725;49.440;10.954;2023-07-28T14:34:28;0.60;;;0.57;;
24555;SDS011;12725;49.440;10.954;2023-07-28T14:38:29;0.60;;;0.60;;
24555;SDS011;12725;49.440;10.954;2023-07-28T14:42:29;0.60;;;0.60;;
24555;SDS011;12725;49.440;10.954;2023-07-28T14:46:29;0.77;;;0.70;;
24555;SDS011;12725;49.440;10.954;2023-07-28T14:50:29;0.70;;;0.70;;
24555;SDS011;12725;49.440;10.954;2023-07-28T14:54:30;0.40;;;0.40;;
24555;SDS011;12725;49.440;10.954;2023-07-28T14:58:30;0.50;;;0.50;;
24555;SDS011;12725;49.440;10.954;2023-07-28T15:02:34;0.50;;;0.50;;
24555;SDS011;12725;49.440;10.954;2023-07-28T15:06:36;1.45;;;0.70;;
24555;SDS011;12725;49.440;10.954;2023-07-28T15:10:36;0.68;;;0.50;;
24555;SDS011;12725;49.440;10.954;2023-07-28T15:14:37;0.82;;;0.60;;
24555;SDS011;12725;49.440;10.954;2023-07-28T15:18:37;0.53;;;0.53;;
24555;SDS011;12725;49.440;10.954;2023-07-28T15:22:37;0.60;;;0.60;;
24555;SDS011;12725;49.440;10.954;2023-07-28T15:26:38;3.20;;;0.77;;
24555;SDS011;12725;49.440;10.954;2023-07-28T15:30:39;1.00;;;0.52;;
24555;SDS011;12725;49.440;10.954;2023-07-28T15:34:39;0.60;;;0.60;;
24555;SDS011;12725;49.440;10.954;2023-07-28T15:38:39;0.63;;;0.47;;
24555;SDS011;12725;49.440;10.954;2023-07-28T15:42:40;0.60;;;0.60;;
24555;SDS011;12725;49.440;10.954;2023-07-28T15:46:40;0.43;;;0.43;;
24555;SDS011;12725;49.440;10.954;2023-07-28T15:50:40;0.67;;;0.60;;
24555;SDS011;12725;49.440;10.954;2023-07-28T15:54:41;0.87;;;0.60;;
24555;SDS011;12725;49.440;10.954;2023-07-28T15:58:41;0.47;;;0.43;;
24555;SDS011;12725;49.440;10.954;2023-07-28T16:02:42;0.40;;;0.40;;
24555;SDS011;12725;49.440;10.954;2023-07-28T16:06:42;0.65;;;0.60;;
24555;SDS011;12725;49.440;10.954;2023-07-28T16:10:44;0.57;;;0.57;;
24555;SDS011;12725;49.440;10.954;2023-07-28T16:14:44;0.60;;;0.60;;
24555;SDS011;12725;49.440;10.954;2023-07-28T16:18:45;0.70;;;0.63;;
24555;SDS011;12725;49.440;10.954;2023-07-28T16:22:45;0.63;;;0.63;;
24555;SDS011;12725;49.440;10.954;2023-07-28T16:26:45;1.57;;;0.60;;
24555;SDS011;12725;49.440;10.954;2023-07-28T16:30:46;1.25;;;1.15;;
24555;SDS011;12725;49.440;10.954;2023-07-28T16:34:46;0.70;;;0.60;;
24555;SDS011;12725;49.440;10.954;2023-07-28T16:38:47;0.98;;;0.50;;
24555;SDS011;12725;49.440;10.954;2023-07-28T16:42:47;0.70;;;0.70;;
24555;SDS011;12725;49.440;10.954;2023-07-28T16:46:47;0.47;;;0.47;;
24555;SDS011;12725;49.440;10.954;2023-07-28T16:50:48;0.80;;;0.80;;
24555;SDS011;12725;49.440;10.954;2023-07-28T16:54:49;1.00;;;0.73;;
24555;SDS011;12725;49.440;10.954;2023-07-28T16:58:49;2.17;;;1.13;;
24555;SDS011;12725;49.440;10.954;2023-07-28T17:02:49;1.00;;;0.77;;
24555;SDS011;12725;49.440;10.954;2023-07-28T17:06:50;1.33;;;0.73;;
24555;SDS011;12725;49.440;10.954;2023-07-28T17:10:52;0.98;;;0.88;;
24555;SDS011;12725;49.440;10.954;2023-07-28T17:14:52;1.00;;;0.77;;
24555;SDS011;12725;49.440;10.954;2023-07-28T17:18:52;1.10;;;1.00;;
24555;SDS011;12725;49.440;10.954;2023-07-28T17:22:53;4.07;;;0.60;;
24555;SDS011;12725;49.440;10.954;2023-07-28T17:26:53;0.73;;;0.73;;
24555;SDS011;12725;49.440;10.954;2023-07-28T17:30:53;1.37;;;0.93;;
24555;SDS011;12725;49.440;10.954;2023-07-28T17:34:54;1.77;;;1.10;;
24555;SDS011;12725;49.440;10.954;2023-07-28T17:38:54;1.53;;;0.90;;
24555;SDS011;12725;49.440;10.954;2023-07-28T17:42:54;1.20;;;0.60;;
24555;SDS011;12725;49.440;10.954;2023-07-28T17:46:55;1.95;;;1.00;;
24555;SDS011;12725;49.440;10.954;2023-07-28T17:50:55;0.80;;;0.73;;
24555;SDS011;12725;49.440;10.954;2023-07-28T17:54:56;1.92;;;0.80;;
24555;SDS011;12725;49.440;10.954;2023-07-28T17:58:56;1.03;;;0.70;;
24555;SDS011;12725;49.440;10.954;2023-07-28T18:02:57;0.88;;;0.80;;
24555;SDS011;12725;49.440;10.954;2023-07-28T18:06:57;0.50;;;0.50;;
24555;SDS011;12725;49.440;10.954;2023-07-28T18:10:58;1.00;;;0.77;;
24555;SDS011;12725;49.440;10.954;2023-07-28T18:14:58;1.50;;;1.10;;
24555;SDS011;12725;49.440;10.954;2023-07-28T18:18:59;0.90;;;0.80;;
24555;SDS011;12725;49.440;10.954;2023-07-28T18:22:59;1.03;;;0.80;;
24555;SDS011;12725;49.440;10.954;2023-07-28T18:27:00;2.20;;;0.90;;
24555;SDS011;12725;49.440;10.954;2023-07-28T18:31:00;1.45;;;0.80;;
24555;SDS011;12725;49.440;10.954;2023-07-28T18:35:01;0.85;;;0.60;;
24555;SDS011;12725;49.440;10.954;2023-07-28T18:39:01;1.45;;;1.00;;
24555;SDS011;12725;49.440;10.954;2023-07-28T18:43:02;1.42;;;0.98;;
24555;SDS011;12725;49.440;10.954;2023-07-28T18:47:03;0.88;;;0.60;;
24555;SDS011;12725;49.440;10.954;2023-07-28T18:51:04;2.08;;;1.20;;
24555;SDS011;12725;49.440;10.954;2023-07-28T18:55:04;3.00;;;1.20;;
24555;SDS011;12725;49.440;10.954;2023-07-28T18:59:05;0.82;;;0.70;;
24555;SDS011;12725;49.440;10.954;2023-07-28T19:03:06;2.17;;;1.00;;
24555;SDS011;12725;49.440;10.954;2023-07-28T19:07:06;0.88;;;0.77;;
24555;SDS011;12725;49.440;10.954;2023-07-28T19:11:06;1.13;;;1.03;;
24555;SDS011;12725;49.440;10.954;2023-07-28T19:15:07;2.40;;;0.90;;
24555;SDS011;12725;49.440;10.954;2023-07-28T19:19:08;1.05;;;0.70;;
24555;SDS011;12725;49.440;10.954;2023-07-28T19:23:09;1.17;;;0.98;;
24555;SDS011;12725;49.440;10.954;2023-07-28T19:27:09;1.92;;;1.08;;
24555;SDS011;12725;49.440;10.954;2023-07-28T19:31:10;1.63;;;1.10;;
24555;SDS011;12725;49.440;10.954;2023-07-28T19:35:10;0.90;;;0.68;;
24555;SDS011;12725;49.440;10.954;2023-07-28T19:39:10;1.30;;;1.07;;
24555;SDS011;12725;49.440;10.954;2023-07-28T19:43:11;1.27;;;1.00;;
24555;SDS011;12725;49.440;10.954;2023-07-28T19:47:11;2.23;;;1.63;;
24555;SDS011;12725;49.440;10.954;2023-07-28T19:51:12;1.45;;;0.98;;
24555;SDS011;12725;49.440;10.954;2023-07-28T19:55:12;1.00;;;0.90;;
24555;SDS011;12725;49.440;10.954;2023-07-28T19:59:12;0.98;;;0.88;;
24555;SDS011;12725;49.440;10.954;2023-07-28T20:03:13;2.28;;;1.45;;
24555;SDS011;12725;49.440;10.954;2023-07-28T20:07:13;0.70;;;0.60;;
24555;SDS011;12725;49.440;10.954;2023-07-28T20:11:14;1.70;;;1.27;;
24555;SDS011;12725;49.440;10.954;2023-07-28T20:15:14;2.60;;;0.73;;
24555;SDS011;12725;49.440;10.954;2023-07-28T20:19:15;1.35;;;1.25;;
24555;SDS011;12725;49.440;10.954;2023-07-28T20:23:17;1.33;;;1.02;;
24555;SDS011;12725;49.440;10.954;2023-07-28T20:27:18;1.95;;;1.17;;
24555;SDS011;12725;49.440;10.954;2023-07-28T20:31:19;1.73;;;1.40;;
24555;SDS011;12725;49.440;10.954;2023-07-28T20:35:21;0.90;;;0.80;;
24555;SDS011;12725;49.440;10.954;2023-07-28T20:39:22;1.13;;;0.93;;
24555;SDS011;12725;49.440;10.954;2023-07-28T20:43:22;1.23;;;0.98;;
24555;SDS011;12725;49.440;10.954;2023-07-28T20:47:22;9.97;;;1.10;;
24555;SDS011;12725;49.440;10.954;2023-07-28T20:51:23;2.53;;;1.77;;
24555;SDS011;12725;49.440;10.954;2023-07-28T20:55:23;1.20;;;0.90;;
24555;SDS011;12725;49.440;10.954;2023-07-28T20:59:23;1.30;;;1.10;;
24555;SDS011;12725;49.440;10.954;2023-07-28T21:03:24;1.40;;;1.20;;
24555;SDS011;12725;49.440;10.954;2023-07-28T21:07:24;1.80;;;1.45;;
24555;SDS011;12725;49.440;10.954;2023-07-28T21:11:25;0.80;;;0.80;;
24555;SDS011;12725;49.440;10.954;2023-07-28T21:15:25;1.00;;;0.90;;
24555;SDS011;12725;49.440;10.954;2023-07-28T21:19:26;1.83;;;0.65;;
24555;SDS011;12725;49.440;10.954;2023-07-28T21:23:26;1.15;;;0.95;;
24555;SDS011;12725;49.440;10.954;2023-07-28T21:27:29;1.50;;;1.05;;
24555;SDS011;12725;49.440;10.954;2023-07-28T21:31:29;1.80;;;1.33;;
24555;SDS011;12725;49.440;10.954;2023-07-28T21:35:30;2.17;;;1.13;;
24555;SDS011;12725;49.440;10.954;2023-07-28T21:39:31;0.93;;;0.90;;
24555;SDS011;12725;49.440;10.954;2023-07-28T21:43:31;1.77;;;1.00;;
24555;SDS011;12725;49.440;10.954;2023-07-28T21:47:32;4.13;;;1.20;;
24555;SDS011;12725;49.440;10.954;2023-07-28T21:51:32;0.85;;;0.80;;
24555;SDS011;12725;49.440;10.954;2023-07-28T21:55:33;0.80;;;0.80;;
24555;SDS011;12725;49.440;10.954;2023-07-28T21:59:34;4.53;;;1.40;;
24555;SDS011;12725;49.440;10.954;2023-07-28T22:03:34;2.83;;;1.40;;
24555;SDS011;12725;49.440;10.954;2023-07-28T22:07:35;0.73;;;0.73;;
24555;SDS011;12725;49.440;10.954;2023-07-28T22:11:35;1.17;;;0.73;;
24555;SDS011;12725;49.440;10.954;2023-07-28T22:15:36;2.37;;;1.13;;
24555;SDS011;12725;49.440;10.954;2023-07-28T22:19:36;0.60;;;0.60;;
24555;SDS011;12725;49.440;10.954;2023-07-28T22:23:37;1.35;;;1.00;;
24555;SDS011;12725;49.440;10.954;2023-07-28T22:27:37;1.90;;;0.97;;
24555;SDS011;12725;49.440;10.954;2023-07-28T22:31:38;0.75;;;0.65;;
24555;SDS011;12725;49.440;10.954;2023-07-28T22:35:38;0.50;;;0.50;;
24555;SDS011;12725;49.440;10.954;2023-07-28T22:39:38;1.53;;;1.00;;
24555;SDS011;12725;49.440;10.954;2023-07-28T22:43:39;1.30;;;0.73;;
24555;SDS011;12725;49.440;10.954;2023-07-28T22:47:39;1.37;;;0.80;;
24555;SDS011;12725;49.440;10.954;2023-07-28T22:51:39;1.10;;;0.87;;
24555;SDS011;12725;49.440;10.954;2023-07-28T22:55:40;1.60;;;0.90;;
24555;SDS011;12725;49.440;10.954;2023-07-28T22:59:40;0.60;;;0.50;;
24555;SDS011;12725;49.440;10.954;2023-07-28T23:03:40;0.75;;;0.73;;
24555;SDS011;12725;49.440;10.954;2023-07-28T23:07:41;3.33;;;0.90;;
24555;SDS011;12725;49.440;10.954;2023-07-28T23:11:42;0.70;;;0.70;;
24555;SDS011;12725;49.440;10.954;2023-07-28T23:15:42;0.77;;;0.60;;
24555;SDS011;12725;49.440;10.954;2023-07-28T23:19:42;1.05;;;0.90;;
24555;SDS011;12725;49.440;10.954;2023-07-28T23:23:43;0.60;;;0.60;;
24555;SDS011;12725;49.440;10.954;2023-07-28T23:27:43;0.93;;;0.73;;
24555;SDS011;12725;49.440;10.954;2023-07-28T23:31:43;1.27;;;0.80;;
24555;SDS011;12725;49.440;10.954;2023-07-28T23:35:44;1.10;;;0.70;;
24555;SDS011;12725;49.440;10.954;2023-07-28T23:39:44;1.53;;;0.80;;
24555;SDS011;12725;49.440;10.954;2023-07-28T23:43:44;1.20;;;0.77;;
24555;SDS011;12725;49.440;10.954;2023-07-28T23:47:45;0.63;;;0.63;;
24555;SDS011;12725;49.440;10.954;2023-07-28T23:51:46;0.60;;;0.60;;
24555;SDS011;12725;49.440;10.954;2023-07-28T23:55:47;0.70;;;0.70;;